Batesville, Indiana
Current Conditions -  °F | °C
As of 4:15 AM on Monday 24 Nov 2014 (Local Time) from KI67 Reporting Station
Overcast Overcast  
Wind Chill: 59°   Ceiling: 1800
Heat Index: 59°   Visibility: 10mi
Dew Point: 54°   Wind: 12mph
Humidity: 82%   Direction: 200°SSW
Pressure: 29.32"   Gusts: NA
Location:  39.3°N, 85.22°W
Report Text: KI67 240915Z AUTO 20010KT 10SM OVC018 15/12 A2932 RMK AO1
Loading
Personal Weather Stations






























Interactive Weather Map New forecast layout! Learn more

10-Day Weather Forecast

Advertisements
Track Severe Weather on mobile